createdAt,value
2018-03-21T00:01:08.036Z,-0.89
2018-03-21T00:03:36.431Z,-0.97
2018-03-21T00:06:04.901Z,-0.95
2018-03-21T00:08:33.333Z,-0.94
2018-03-21T00:11:01.752Z,-0.97
2018-03-21T00:13:30.222Z,-0.93
2018-03-21T00:15:58.634Z,-0.92
2018-03-21T00:18:27.057Z,-0.93
2018-03-21T00:20:55.518Z,-0.93
2018-03-21T00:23:23.944Z,-0.97
2018-03-21T00:25:52.362Z,-1.03
2018-03-21T00:28:20.823Z,-1.13
2018-03-21T00:30:49.230Z,-1.26
2018-03-21T00:33:17.669Z,-1.31
2018-03-21T00:35:46.161Z,-1.37
2018-03-21T00:38:14.576Z,-1.41
2018-03-21T00:40:43.000Z,-1.45
2018-03-21T00:43:11.469Z,-1.46
2018-03-21T00:45:39.921Z,-1.46
2018-03-21T00:48:08.338Z,-1.53
2018-03-21T00:50:36.789Z,-1.57
2018-03-21T00:53:05.225Z,-1.61
2018-03-21T00:55:33.656Z,-1.48
2018-03-21T00:58:02.144Z,-1.46
2018-03-21T01:00:30.569Z,-1.39
2018-03-21T01:02:58.977Z,-1.46
2018-03-21T01:05:27.426Z,-1.56
2018-03-21T01:07:55.833Z,-1.54
2018-03-21T01:10:24.245Z,-1.65
2018-03-21T01:12:52.717Z,-1.69
2018-03-21T01:15:21.157Z,-1.77
2018-03-21T01:17:49.582Z,-1.78
2018-03-21T01:20:18.041Z,-1.81
2018-03-21T01:22:46.465Z,-1.84
2018-03-21T01:25:14.887Z,-1.92
2018-03-21T01:27:43.349Z,-1.98
2018-03-21T01:30:11.777Z,-2.05
2018-03-21T01:32:40.205Z,-2.05
2018-03-21T01:35:08.673Z,-2.02
2018-03-21T01:37:37.124Z,-1.91
2018-03-21T01:40:05.565Z,-1.93
2018-03-21T01:42:34.048Z,-1.92
2018-03-21T01:45:02.481Z,-1.84
2018-03-21T01:47:30.894Z,-1.78
2018-03-21T01:49:59.383Z,-1.83
2018-03-21T01:52:27.828Z,-1.91
2018-03-21T01:54:56.265Z,-1.86
2018-03-21T01:57:24.742Z,-1.95
2018-03-21T01:59:53.176Z,-2.05
2018-03-21T02:02:21.592Z,-2.04
2018-03-21T02:04:50.058Z,-2.10
2018-03-21T02:07:18.493Z,-2.04
2018-03-21T02:09:46.905Z,-2.12
2018-03-21T02:12:15.372Z,-2.17
2018-03-21T02:14:43.785Z,-2.21
2018-03-21T02:17:12.194Z,-2.28
2018-03-21T02:19:40.654Z,-2.31
2018-03-21T02:22:09.060Z,-2.33
2018-03-21T02:24:37.489Z,-2.28
2018-03-21T02:27:05.989Z,-2.26
2018-03-21T02:29:34.402Z,-2.30
2018-03-21T02:32:02.825Z,-2.27
2018-03-21T02:34:31.299Z,-2.26
2018-03-21T02:36:59.760Z,-2.31
2018-03-21T02:39:28.176Z,-2.28
2018-03-21T02:41:56.629Z,-2.24
2018-03-21T02:44:25.040Z,-2.23
2018-03-21T02:46:53.452Z,-2.24
2018-03-21T02:49:22.062Z,-2.24
2018-03-21T02:51:50.485Z,-2.23
2018-03-21T02:54:18.903Z,-2.30
2018-03-21T02:56:47.371Z,-2.32
2018-03-21T02:59:15.777Z,-2.35
2018-03-21T03:01:44.199Z,-2.29
2018-03-21T03:04:12.675Z,-2.34
2018-03-21T03:06:41.087Z,-2.37
2018-03-21T03:09:09.508Z,-2.32
2018-03-21T03:11:37.968Z,-2.33
2018-03-21T03:14:06.392Z,-2.33
2018-03-21T03:16:34.801Z,-2.33
2018-03-21T03:19:03.267Z,-2.38
2018-03-21T03:21:31.677Z,-2.34
2018-03-21T03:24:00.092Z,-2.29
2018-03-21T03:26:28.572Z,-2.35
2018-03-21T03:28:56.982Z,-2.52
2018-03-21T03:31:25.394Z,-2.54
2018-03-21T03:33:53.860Z,-2.57
2018-03-21T03:36:22.295Z,-2.64
2018-03-21T03:38:50.787Z,-2.66
2018-03-21T03:41:19.253Z,-2.55
2018-03-21T03:43:47.680Z,-2.63
2018-03-21T03:46:16.095Z,-2.67
2018-03-21T03:48:44.734Z,-2.64
2018-03-21T03:51:13.209Z,-2.66
2018-03-21T03:53:41.633Z,-2.64
2018-03-21T03:56:10.116Z,-2.61
2018-03-21T03:58:38.526Z,-2.71
2018-03-21T04:01:06.933Z,-2.70
2018-03-21T04:03:35.395Z,-2.69
2018-03-21T04:06:03.840Z,-2.70
2018-03-21T04:08:32.273Z,-2.77
2018-03-21T04:11:00.933Z,-2.83
2018-03-21T04:13:29.352Z,-2.85
2018-03-21T04:15:57.776Z,-2.94
2018-03-21T04:18:26.240Z,-2.88
2018-03-21T04:20:54.665Z,-2.86
2018-03-21T04:23:23.081Z,-2.82
2018-03-21T04:25:51.542Z,-2.85
2018-03-21T04:28:19.964Z,-2.93
2018-03-21T04:30:48.378Z,-2.91
2018-03-21T04:33:16.830Z,-2.91
2018-03-21T04:35:45.255Z,-2.91
2018-03-21T04:38:13.682Z,-2.94
2018-03-21T04:40:42.134Z,-2.89
2018-03-21T04:43:10.538Z,-2.88
2018-03-21T04:45:38.969Z,-2.91
2018-03-21T04:48:07.451Z,-2.90
2018-03-21T04:50:35.892Z,-2.90
2018-03-21T04:53:04.338Z,-2.88
2018-03-21T04:55:32.790Z,-2.97
2018-03-21T04:58:01.214Z,-3.01
2018-03-21T05:00:29.641Z,-2.98
2018-03-21T05:02:58.105Z,-2.91
2018-03-21T05:05:26.540Z,-3.01
2018-03-21T05:07:54.946Z,-2.96
2018-03-21T05:10:23.441Z,-2.95
2018-03-21T05:12:51.884Z,-3.04
2018-03-21T05:15:20.342Z,-3.02
2018-03-21T05:17:48.832Z,-3.09
2018-03-21T05:20:17.251Z,-3.03
2018-03-21T05:22:45.685Z,-3.04
2018-03-21T05:25:14.181Z,-2.97
2018-03-21T05:27:42.609Z,-2.99
2018-03-21T05:30:11.032Z,-2.97
2018-03-21T05:32:39.739Z,-2.94
2018-03-21T05:35:08.171Z,-2.94
2018-03-21T05:37:36.598Z,-2.91
2018-03-21T05:40:05.083Z,-2.82
2018-03-21T05:42:33.505Z,-2.88
2018-03-21T05:45:01.932Z,-2.80
2018-03-21T05:47:30.398Z,-2.79
2018-03-21T05:49:58.816Z,-2.76
2018-03-21T05:52:28.170Z,-2.70
2018-03-21T05:54:56.626Z,-2.63
2018-03-21T05:57:25.039Z,-2.58
2018-03-21T05:59:53.461Z,-2.52
2018-03-21T06:02:21.940Z,-2.39
2018-03-21T06:04:50.383Z,-2.32
2018-03-21T06:07:18.819Z,-2.31
2018-03-21T06:09:47.318Z,-2.23
2018-03-21T06:12:15.766Z,-2.18
2018-03-21T06:14:44.203Z,-2.17
2018-03-21T06:17:12.694Z,-2.05
2018-03-21T06:19:41.129Z,-2.03
2018-03-21T06:22:09.580Z,-1.94
2018-03-21T06:24:38.076Z,-1.87
2018-03-21T06:27:06.518Z,-1.78
2018-03-21T06:29:34.972Z,-1.69
2018-03-21T06:32:03.450Z,-1.61
2018-03-21T06:34:31.888Z,-1.48
2018-03-21T06:37:00.324Z,-1.39
2018-03-21T06:39:28.821Z,-1.32
2018-03-21T06:41:57.258Z,-1.21
2018-03-21T06:44:25.690Z,-1.25
2018-03-21T06:46:54.167Z,-1.24
2018-03-21T06:49:22.591Z,-1.22
2018-03-21T06:51:51.020Z,-1.26
2018-03-21T06:54:19.500Z,-1.20
2018-03-21T06:57:03.747Z,-1.18
2018-03-21T06:59:32.234Z,-1.12
2018-03-21T07:02:00.664Z,-0.98
2018-03-21T07:04:29.078Z,-0.91
2018-03-21T07:06:57.555Z,-0.80
2018-03-21T07:09:25.990Z,-0.66
2018-03-21T07:11:54.421Z,-0.55
2018-03-21T07:14:34.583Z,-0.38
2018-03-21T07:17:03.010Z,-0.28
2018-03-21T07:19:31.441Z,-0.18
2018-03-21T07:21:59.923Z,-0.06
2018-03-21T07:24:28.346Z,-0.12
2018-03-21T07:26:56.784Z,-0.10
2018-03-21T07:29:25.242Z,0.02
2018-03-21T07:31:53.684Z,0.03
2018-03-21T07:34:22.093Z,0.02
2018-03-21T07:36:50.542Z,0.23
2018-03-21T07:39:18.966Z,0.32
2018-03-21T07:41:47.374Z,0.39
2018-03-21T07:44:15.838Z,0.44
2018-03-21T07:46:44.250Z,0.51
2018-03-21T07:49:12.679Z,0.51
2018-03-21T07:51:41.526Z,0.65
2018-03-21T07:54:09.935Z,0.74
2018-03-21T07:56:38.404Z,0.76
2018-03-21T07:59:06.858Z,0.93
2018-03-21T08:01:35.285Z,0.92
2018-03-21T08:04:03.712Z,0.99
2018-03-21T08:06:32.193Z,1.00
2018-03-21T08:09:00.638Z,1.03
2018-03-21T08:11:29.057Z,1.10
2018-03-21T08:13:57.510Z,1.15
2018-03-21T08:16:25.961Z,1.15
2018-03-21T08:18:54.373Z,1.28
2018-03-21T08:21:22.817Z,1.48
2018-03-21T08:23:51.231Z,1.52
2018-03-21T08:26:19.645Z,1.70
2018-03-21T08:28:48.181Z,1.85
2018-03-21T08:31:16.595Z,2.04
2018-03-21T08:33:45.003Z,2.11
2018-03-21T08:36:13.464Z,2.31
2018-03-21T08:38:41.888Z,2.46
2018-03-21T08:41:10.321Z,2.59
2018-03-21T08:43:38.798Z,2.84
2018-03-21T08:46:07.249Z,3.06
2018-03-21T08:48:35.671Z,3.12
2018-03-21T08:51:04.157Z,3.21
2018-03-21T08:53:32.575Z,3.11
2018-03-21T08:56:00.973Z,3.25
2018-03-21T08:58:29.443Z,3.24
2018-03-21T09:00:57.876Z,3.45
2018-03-21T09:03:26.286Z,3.59
2018-03-21T09:05:54.736Z,3.62
2018-03-21T09:08:23.156Z,3.86
2018-03-21T09:10:51.558Z,4.05
2018-03-21T09:13:20.013Z,3.91
2018-03-21T09:15:48.444Z,4.09
2018-03-21T09:18:16.927Z,4.37
2018-03-21T09:20:45.365Z,4.54
2018-03-21T09:23:13.788Z,4.65
2018-03-21T09:25:42.202Z,4.57
2018-03-21T09:28:10.665Z,4.61
2018-03-21T09:30:39.089Z,4.64
2018-03-21T09:33:07.494Z,4.74
2018-03-21T09:35:35.976Z,4.76
2018-03-21T09:38:04.390Z,5.03
2018-03-21T09:40:32.800Z,5.23
2018-03-21T09:43:01.264Z,5.13
2018-03-21T09:45:29.693Z,5.11
2018-03-21T09:47:58.106Z,5.24
2018-03-21T09:50:26.589Z,5.29
2018-03-21T09:52:55.013Z,5.31
2018-03-21T09:55:23.484Z,5.65
2018-03-21T09:57:51.915Z,5.66
2018-03-21T10:00:20.314Z,5.68
2018-03-21T10:02:48.727Z,5.83
2018-03-21T10:05:17.209Z,6.04
2018-03-21T10:07:45.633Z,6.27
2018-03-21T10:10:14.066Z,6.43
2018-03-21T10:12:42.529Z,6.44
2018-03-21T10:15:10.954Z,6.50
2018-03-21T10:17:39.358Z,6.44
2018-03-21T10:20:07.817Z,6.55
2018-03-21T10:22:36.281Z,6.74
2018-03-21T10:25:04.707Z,6.34
2018-03-21T10:27:33.213Z,6.25
2018-03-21T10:30:01.633Z,6.41
2018-03-21T10:32:30.085Z,6.27
2018-03-21T10:34:58.570Z,6.25
2018-03-21T10:37:26.974Z,6.27
2018-03-21T10:39:55.379Z,6.35
2018-03-21T10:42:23.857Z,6.56
2018-03-21T10:44:52.295Z,6.54
2018-03-21T10:47:20.735Z,6.75
2018-03-21T10:49:49.487Z,6.80
2018-03-21T10:52:17.927Z,6.88
2018-03-21T10:54:46.353Z,7.07
2018-03-21T10:57:14.844Z,7.22
2018-03-21T10:59:43.277Z,7.09
2018-03-21T11:02:14.538Z,6.88
2018-03-21T11:04:42.962Z,6.76
2018-03-21T11:07:11.366Z,6.77
2018-03-21T11:09:39.842Z,6.69
2018-03-21T11:12:08.276Z,6.79
2018-03-21T11:14:36.690Z,6.98
2018-03-21T11:17:05.150Z,6.91
2018-03-21T11:19:33.569Z,7.07
2018-03-21T11:22:02.008Z,6.91
2018-03-21T11:24:30.488Z,7.05
2018-03-21T11:26:58.921Z,7.23
2018-03-21T11:29:27.340Z,7.47
2018-03-21T11:31:55.791Z,7.66
2018-03-21T11:34:24.224Z,7.96
2018-03-21T11:36:52.634Z,8.08
2018-03-21T11:39:21.104Z,7.86
2018-03-21T11:41:49.533Z,8.16
2018-03-21T11:44:18.010Z,8.31
2018-03-21T11:46:46.468Z,8.06
2018-03-21T11:49:14.897Z,8.12
2018-03-21T11:51:43.316Z,8.14
2018-03-21T11:54:11.767Z,8.30
2018-03-21T11:56:40.198Z,8.28
2018-03-21T11:59:08.616Z,8.43
2018-03-21T12:01:37.102Z,8.39
2018-03-21T12:04:05.533Z,8.53
2018-03-21T12:06:33.934Z,8.65
2018-03-21T12:09:02.381Z,8.88
2018-03-21T12:11:30.787Z,8.97
2018-03-21T12:13:59.198Z,8.91
2018-03-21T12:16:28.006Z,8.62
2018-03-21T12:18:56.405Z,8.62
2018-03-21T12:21:24.822Z,8.66
2018-03-21T12:23:53.297Z,8.61
2018-03-21T12:26:21.720Z,8.28
2018-03-21T12:28:50.140Z,8.20
2018-03-21T12:31:18.582Z,8.43
2018-03-21T12:33:47.002Z,8.51
2018-03-21T12:36:15.401Z,8.61
2018-03-21T12:38:43.873Z,8.60
2018-03-21T12:41:12.282Z,8.61
2018-03-21T12:43:40.691Z,8.82
2018-03-21T12:46:09.325Z,8.53
2018-03-21T12:48:37.734Z,8.54
2018-03-21T12:51:06.150Z,8.54
2018-03-21T12:53:34.599Z,8.63
2018-03-21T12:56:03.044Z,8.80
2018-03-21T12:58:31.471Z,8.56
2018-03-21T13:00:59.913Z,8.31
2018-03-21T13:03:28.337Z,8.39
2018-03-21T13:05:56.738Z,8.56
2018-03-21T13:08:25.209Z,8.53
2018-03-21T13:10:53.628Z,8.33
2018-03-21T13:13:22.034Z,8.51
2018-03-21T13:15:50.509Z,8.68
2018-03-21T13:18:18.929Z,8.53
2018-03-21T13:20:47.329Z,7.98
2018-03-21T13:23:15.783Z,7.88
2018-03-21T13:25:44.204Z,7.91
2018-03-21T13:28:12.623Z,7.90
2018-03-21T13:30:41.094Z,8.13
2018-03-21T13:33:09.539Z,8.27
2018-03-21T13:35:37.950Z,8.13
2018-03-21T13:38:06.432Z,8.26
2018-03-21T13:40:34.834Z,8.23
2018-03-21T13:43:03.257Z,8.27
2018-03-21T13:45:31.710Z,8.29
2018-03-21T13:48:00.170Z,8.38
2018-03-21T13:50:28.578Z,8.52
2018-03-21T13:52:57.057Z,8.54
2018-03-21T13:55:25.463Z,8.54
2018-03-21T13:57:53.885Z,8.67
2018-03-21T14:00:22.350Z,8.68
2018-03-21T14:02:50.773Z,8.58
2018-03-21T14:05:19.243Z,8.64
2018-03-21T14:07:47.674Z,8.48
2018-03-21T14:10:16.084Z,8.06
2018-03-21T14:12:44.553Z,7.92
2018-03-21T14:15:12.999Z,7.78
2018-03-21T14:17:41.421Z,7.82
2018-03-21T14:20:09.846Z,7.81
2018-03-21T14:22:38.294Z,7.68
2018-03-21T14:25:06.712Z,7.71
2018-03-21T14:27:35.137Z,7.43
2018-03-21T14:30:03.742Z,7.33
2018-03-21T14:32:32.169Z,7.33
2018-03-21T14:35:00.588Z,7.17
2018-03-21T14:37:29.044Z,7.14
2018-03-21T14:39:57.452Z,6.99
2018-03-21T14:42:25.892Z,7.01
2018-03-21T14:44:54.340Z,6.89
2018-03-21T14:47:22.742Z,6.75
2018-03-21T14:49:51.155Z,6.66
2018-03-21T14:52:19.632Z,6.53
2018-03-21T14:54:48.050Z,6.50
2018-03-21T14:57:16.463Z,6.49
2018-03-21T14:59:45.072Z,6.70
2018-03-21T15:02:13.502Z,6.70
2018-03-21T15:04:41.932Z,6.75
2018-03-21T15:07:10.390Z,6.84
2018-03-21T15:09:38.817Z,6.70
2018-03-21T15:12:07.236Z,6.75
2018-03-21T15:14:35.720Z,6.66
2018-03-21T15:17:04.131Z,6.84
2018-03-21T15:19:32.551Z,6.75
2018-03-21T15:22:01.017Z,6.47
2018-03-21T15:24:29.426Z,6.48
2018-03-21T15:26:57.861Z,6.33
2018-03-21T15:29:26.310Z,6.30
2018-03-21T15:31:54.715Z,6.23
2018-03-21T15:34:23.138Z,6.29
2018-03-21T15:36:51.601Z,6.31
2018-03-21T15:39:20.020Z,6.27
2018-03-21T15:41:48.451Z,6.14
2018-03-21T15:44:16.906Z,6.18
2018-03-21T15:46:45.329Z,6.13
2018-03-21T15:49:13.757Z,6.20
2018-03-21T15:51:42.237Z,6.16
2018-03-21T15:54:10.916Z,6.13
2018-03-21T15:56:39.345Z,6.11
2018-03-21T15:59:07.801Z,6.06
2018-03-21T16:01:36.230Z,5.94
2018-03-21T16:04:04.641Z,5.97
2018-03-21T16:06:33.121Z,5.98
2018-03-21T16:09:01.556Z,5.87
2018-03-21T16:11:29.984Z,5.77
2018-03-21T16:13:58.446Z,5.74
2018-03-21T16:16:26.850Z,5.62
2018-03-21T16:18:55.258Z,5.63
2018-03-21T16:21:23.713Z,5.48
2018-03-21T16:23:52.131Z,5.43
2018-03-21T16:26:20.530Z,5.37
2018-03-21T16:28:48.994Z,5.34
2018-03-21T16:31:17.457Z,5.20
2018-03-21T16:33:45.866Z,5.19
2018-03-21T16:36:14.333Z,5.11
2018-03-21T16:38:42.760Z,5.10
2018-03-21T16:41:11.162Z,5.07
2018-03-21T16:43:39.630Z,5.05
2018-03-21T16:46:08.057Z,5.00
2018-03-21T16:48:36.458Z,4.93
2018-03-21T16:51:04.945Z,4.93
2018-03-21T16:53:33.376Z,4.87
2018-03-21T16:56:01.806Z,4.87
2018-03-21T16:58:30.258Z,4.82
2018-03-21T17:00:58.681Z,4.75
2018-03-21T17:03:27.092Z,4.68
2018-03-21T17:05:55.550Z,4.61
2018-03-21T17:08:23.981Z,4.45
2018-03-21T17:10:52.404Z,4.43
2018-03-21T17:13:20.877Z,4.38
2018-03-21T17:15:49.286Z,4.32
2018-03-21T17:18:17.699Z,4.32
2018-03-21T17:20:46.168Z,4.23
2018-03-21T17:23:14.593Z,4.16
2018-03-21T17:25:43.004Z,4.10
2018-03-21T17:28:11.459Z,4.12
2018-03-21T17:30:39.917Z,4.07
2018-03-21T17:33:08.331Z,4.10
2018-03-21T17:35:36.790Z,4.04
2018-03-21T17:38:05.207Z,3.93
2018-03-21T17:40:33.626Z,3.88
2018-03-21T17:43:02.116Z,3.77
2018-03-21T17:45:30.530Z,3.75
2018-03-21T17:47:58.938Z,3.59
2018-03-21T17:50:27.421Z,3.51
2018-03-21T17:52:55.848Z,3.48
2018-03-21T17:55:24.292Z,3.53
2018-03-21T17:57:52.792Z,3.48
2018-03-21T18:00:21.287Z,3.45
2018-03-21T18:02:50.071Z,3.51
2018-03-21T18:05:18.680Z,3.53
2018-03-21T18:07:47.113Z,3.53
2018-03-21T18:10:15.527Z,3.50
2018-03-21T18:12:43.978Z,3.43
2018-03-21T18:15:12.389Z,3.49
2018-03-21T18:17:40.824Z,3.38
2018-03-21T18:20:09.289Z,3.37
2018-03-21T18:22:37.709Z,3.33
2018-03-21T18:25:06.138Z,3.32
2018-03-21T18:27:34.614Z,3.33
2018-03-21T18:30:03.104Z,3.31
2018-03-21T18:32:31.522Z,3.33
2018-03-21T18:35:00.010Z,3.30
2018-03-21T18:37:28.434Z,3.33
2018-03-21T18:39:56.851Z,3.31
2018-03-21T18:42:25.321Z,3.31
2018-03-21T18:44:53.741Z,3.27
2018-03-21T18:47:22.149Z,3.31
2018-03-21T18:49:50.654Z,3.25
2018-03-21T18:52:19.108Z,3.25
2018-03-21T18:54:47.546Z,3.21
2018-03-21T18:57:16.033Z,3.22
2018-03-21T18:59:44.466Z,3.26
2018-03-21T19:02:12.880Z,3.32
2018-03-21T19:04:41.394Z,3.29
2018-03-21T19:07:09.820Z,3.36
2018-03-21T19:09:38.230Z,3.32
2018-03-21T19:12:06.713Z,3.35
2018-03-21T19:14:35.129Z,3.38
2018-03-21T19:17:03.556Z,3.39
2018-03-21T19:19:32.047Z,3.33
2018-03-21T19:22:00.458Z,3.29
2018-03-21T19:24:28.893Z,3.33
2018-03-21T19:26:57.365Z,3.32
2018-03-21T19:29:25.787Z,3.30
2018-03-21T19:31:54.245Z,3.28
2018-03-21T19:34:22.736Z,3.27
2018-03-21T19:36:51.191Z,3.25
2018-03-21T19:39:19.601Z,3.25
2018-03-21T19:41:48.081Z,3.21
2018-03-21T19:44:16.501Z,3.21
2018-03-21T19:46:44.921Z,3.23
2018-03-21T19:49:13.417Z,3.20
2018-03-21T19:51:41.848Z,3.17
2018-03-21T19:54:11.052Z,3.14
2018-03-21T19:56:39.514Z,3.18
2018-03-21T19:59:07.977Z,3.20
2018-03-21T20:01:36.452Z,3.30
2018-03-21T20:04:04.944Z,3.29
2018-03-21T20:06:33.370Z,3.30
2018-03-21T20:09:01.787Z,3.22
2018-03-21T20:11:30.247Z,3.26
2018-03-21T20:13:58.675Z,3.29
2018-03-21T20:16:27.089Z,3.27
2018-03-21T20:18:55.580Z,3.29
2018-03-21T20:21:23.990Z,3.35
2018-03-21T20:23:52.402Z,3.39
2018-03-21T20:26:20.885Z,3.35
2018-03-21T20:28:49.298Z,3.36
2018-03-21T20:31:17.739Z,3.36
2018-03-21T20:33:46.237Z,3.34
2018-03-21T20:36:14.646Z,3.29
2018-03-21T20:38:43.050Z,3.30
2018-03-21T20:41:11.548Z,3.30
2018-03-21T20:43:39.982Z,3.24
2018-03-21T20:46:08.409Z,3.22
2018-03-21T20:48:36.879Z,3.31
2018-03-21T20:51:05.368Z,3.31
2018-03-21T20:53:33.754Z,3.17
2018-03-21T20:56:02.213Z,3.22
2018-03-21T20:58:30.637Z,3.13
2018-03-21T21:00:59.064Z,3.02
2018-03-21T21:03:27.526Z,3.02
2018-03-21T21:05:55.990Z,3.05
2018-03-21T21:08:24.426Z,2.99
2018-03-21T21:10:52.898Z,3.12
2018-03-21T21:13:21.329Z,3.10
2018-03-21T21:15:49.761Z,3.05
2018-03-21T21:18:18.232Z,3.11
2018-03-21T21:20:46.654Z,3.07
2018-03-21T21:23:15.081Z,3.11
2018-03-21T21:25:43.574Z,3.10
2018-03-21T21:28:11.986Z,3.08
2018-03-21T21:30:40.394Z,3.09
2018-03-21T21:33:08.878Z,3.07
2018-03-21T21:35:37.306Z,3.09
2018-03-21T21:38:05.727Z,3.15
2018-03-21T21:40:34.216Z,3.12
2018-03-21T21:43:02.668Z,3.10
2018-03-21T21:45:31.117Z,3.07
2018-03-21T21:47:59.612Z,3.02
2018-03-21T21:50:28.053Z,3.04
2018-03-21T21:52:56.496Z,3.01
2018-03-21T21:55:24.954Z,3.03
2018-03-21T21:57:53.401Z,3.03
2018-03-21T22:00:21.814Z,2.97
2018-03-21T22:02:50.283Z,2.95
2018-03-21T22:05:18.713Z,2.95
2018-03-21T22:07:47.157Z,2.95
2018-03-21T22:10:15.622Z,2.93
2018-03-21T22:12:44.086Z,2.89
2018-03-21T22:15:12.530Z,2.97
2018-03-21T22:17:41.021Z,2.92
2018-03-21T22:20:09.452Z,2.88
2018-03-21T22:22:37.864Z,2.83
2018-03-21T22:25:06.322Z,2.83
2018-03-21T22:27:34.752Z,2.76
2018-03-21T22:30:03.177Z,2.71
2018-03-21T22:32:31.630Z,2.71
2018-03-21T22:35:00.060Z,2.73
2018-03-21T22:37:28.481Z,2.76
2018-03-21T22:39:56.954Z,2.80
2018-03-21T22:42:25.380Z,2.76
2018-03-21T22:44:53.812Z,2.78
2018-03-21T22:47:22.284Z,2.69
2018-03-21T22:49:50.716Z,2.69
2018-03-21T22:52:19.130Z,2.67
2018-03-21T22:54:47.599Z,2.63
2018-03-21T22:57:16.017Z,2.69
2018-03-21T22:59:44.442Z,2.68
2018-03-21T23:02:12.910Z,2.64
2018-03-21T23:04:41.342Z,2.62
2018-03-21T23:07:09.778Z,2.63
2018-03-21T23:09:38.338Z,2.64
2018-03-21T23:12:06.755Z,2.60
2018-03-21T23:14:35.170Z,2.59
2018-03-21T23:17:03.625Z,2.55
2018-03-21T23:19:32.054Z,2.52
2018-03-21T23:22:00.470Z,2.57
2018-03-21T23:24:28.938Z,2.56
2018-03-21T23:26:57.369Z,2.50
2018-03-21T23:29:25.831Z,2.48
2018-03-21T23:31:54.275Z,2.49
2018-03-21T23:34:22.725Z,2.49
2018-03-21T23:36:51.150Z,2.57
2018-03-21T23:39:19.626Z,2.59
2018-03-21T23:41:48.065Z,2.59
2018-03-21T23:44:16.502Z,2.63
2018-03-21T23:46:44.994Z,2.63
2018-03-21T23:49:13.423Z,2.64
2018-03-21T23:51:41.853Z,2.61
2018-03-21T23:54:10.961Z,2.62
2018-03-21T23:56:39.386Z,2.55
2018-03-21T23:59:07.805Z,2.57
